Гран При Венгрии: третья тренировка

Гран При Венгрии: третья тренировка

Последняя тренировка перед квалификацией прошла опять при солнечной температуре над Хунгарорингом. Лучшее время показал Льюис Хэмилтон.

Первые полчаса гонщики работали на резине Medium и лучшим долгое время был Даниэль Риккиардо, пока Фернандо Алонсо не опередил его в середине сессии. В это время пилоты Mercedes не стремились показать лучшего времени. Росберг был четвертым, а Хэмильтон долгое время был за границей десятки, пока за 20 минут до конца не показал лучшее время на этой резине – 1:25.682

Трасса стала уже более чистой и более прорезиненной. Поэтому выездов за пределы трассы было меньше. Однако, в последние минуты над трассой начали сгущаться тучи, которые могли принести дождь если не в конце тренировки, то после нее.

Традиционно, в конце третьей тренировки, гонщики провели симуляцию квалификации. Первыми на резине Soft выехали пилоты Ferrari и они плотно заняли первые строчки. Однако, уже традиционно пилоты Mercedes смогли забрать себе первые два места протокола. Плюс пилотов из Маранелло опередил Вальттери Боттас и пилоты Red Bull.

Третий раз подряд на этих выходных в Венгрии лучшим стал Льюис Хэмильтон, на этот раз со временем 1:24.048.

 
Дата26 июля 2014Погодасолнечно
Киевское время12:00-13:00 ч.Температура27°C
Местное время11:00-12:00 ч.Влажность46%
Участники22Давление987 mBar
Рекорд в гонке1:19.071 мин.Асфальт46°C
Рекорд в квалификации1:18.773 мин.Ветер3,4 м/с северный

Результаты

Поз.ПилотКомандаВремяОтставаниеот пред.Круги
144L. HamiltonMercedes1:24.048  21
26N. RosbergMercedes1:24.095+0:00.047+0:00.04724
31S. VettelRed Bull1:24.455+0:00.407+0:00.36016
43D. RicciardoRed Bull1:24.678+0:00.630+0:00.22315
577V. BottasWilliams1:24.685+0:00.637+0:00.00721
614F. AlonsoFerrari1:24.769+0:00.721+0:00.08411
77K. RäikkönenFerrari1:24.818+0:00.770+0:00.04919
820K. MagnussenMcLaren1:24.867+0:00.819+0:00.04921
925J. VergneToro Rosso1:25.162+0:01.114+0:00.29517
1026D. KwjatToro Rosso1:25.170+0:01.122+0:00.00819
1119F. MassaWilliams1:25.231+0:01.183+0:00.06118
1222J. ButtonMcLaren1:25.468+0:01.420+0:00.23714
1313P. MaldonadoLotus1:25.829+0:01.781+0:00.36122
148R. GrosjeanLotus1:25.859+0:01.811+0:00.03019
1599A. SutilSauber1:25.934+0:01.886+0:00.07521
1621E. GutierrezSauber1:26.023+0:01.975+0:00.08923
1727N. HülkenbergForce India1:26.035+0:01.987+0:00.01219
1811S. PerezForce India1:26.142+0:02.094+0:00.10717
1910K. KobayashiCaterham1:27.560+0:03.512+0:01.41823
204M. ChiltonMarussia1:28.083+0:04.035+0:00.52317
219M. EricssonCaterham1:28.605+0:04.557+0:00.52222
2217J. BianchiMarussia1:28.821+0:04.773+0:00.21614
 107 % барьер1:29.931 
от пред. = от предыдущего
Написати коментар
Показати коментарі
Про цю статтю
Серія Формула 1
Тип статті Важливі новини